sensor_id;sensor_type;location;lat;lon;timestamp;P1;durP1;ratioP1;P2;durP2;ratioP2
77099;SDS011;66602;48.922;2.414;2024-03-07T00:01:33;14.73;;;12.25;;
77099;SDS011;66602;48.922;2.414;2024-03-07T00:04:02;14.93;;;13.30;;
77099;SDS011;66602;48.922;2.414;2024-03-07T00:06:29;19.55;;;13.75;;
77099;SDS011;66602;48.922;2.414;2024-03-07T00:08:55;18.58;;;15.02;;
77099;SDS011;66602;48.922;2.414;2024-03-07T00:11:23;23.05;;;15.88;;
77099;SDS011;66602;48.922;2.414;2024-03-07T00:13:49;24.00;;;15.57;;
77099;SDS011;66602;48.922;2.414;2024-03-07T00:16:18;27.65;;;16.20;;
77099;SDS011;66602;48.922;2.414;2024-03-07T00:18:46;18.98;;;15.20;;
77099;SDS011;66602;48.922;2.414;2024-03-07T00:21:12;20.88;;;14.95;;
77099;SDS011;66602;48.922;2.414;2024-03-07T00:23:39;22.70;;;15.20;;
77099;SDS011;66602;48.922;2.414;2024-03-07T00:26:04;23.45;;;14.05;;
77099;SDS011;66602;48.922;2.414;2024-03-07T00:28:31;21.00;;;14.00;;
77099;SDS011;66602;48.922;2.414;2024-03-07T00:31:04;17.23;;;12.65;;
77099;SDS011;66602;48.922;2.414;2024-03-07T00:33:32;15.50;;;12.02;;
77099;SDS011;66602;48.922;2.414;2024-03-07T00:35:58;17.08;;;13.40;;
77099;SDS011;66602;48.922;2.414;2024-03-07T00:38:25;13.15;;;11.27;;
77099;SDS011;66602;48.922;2.414;2024-03-07T00:40:51;13.02;;;11.35;;
77099;SDS011;66602;48.922;2.414;2024-03-07T00:43:17;14.65;;;10.70;;
77099;SDS011;66602;48.922;2.414;2024-03-07T00:45:42;15.07;;;10.82;;
77099;SDS011;66602;48.922;2.414;2024-03-07T00:48:08;11.77;;;10.82;;
77099;SDS011;66602;48.922;2.414;2024-03-07T00:50:40;12.55;;;11.25;;
77099;SDS011;66602;48.922;2.414;2024-03-07T00:53:08;11.23;;;10.20;;
77099;SDS011;66602;48.922;2.414;2024-03-07T00:55:34;14.80;;;11.85;;
77099;SDS011;66602;48.922;2.414;2024-03-07T00:58:00;13.35;;;11.95;;
77099;SDS011;66602;48.922;2.414;2024-03-07T01:00:26;12.77;;;11.38;;
77099;SDS011;66602;48.922;2.414;2024-03-07T01:02:53;11.13;;;10.23;;
77099;SDS011;66602;48.922;2.414;2024-03-07T01:05:18;12.00;;;10.80;;
77099;SDS011;66602;48.922;2.414;2024-03-07T01:07:45;14.45;;;11.25;;
77099;SDS011;66602;48.922;2.414;2024-03-07T01:10:13;11.20;;;10.07;;
77099;SDS011;66602;48.922;2.414;2024-03-07T01:12:39;10.82;;;9.82;;
77099;SDS011;66602;48.922;2.414;2024-03-07T01:15:05;11.43;;;10.38;;
77099;SDS011;66602;48.922;2.414;2024-03-07T01:17:32;13.18;;;10.48;;
77099;SDS011;66602;48.922;2.414;2024-03-07T01:19:58;11.57;;;10.52;;
77099;SDS011;66602;48.922;2.414;2024-03-07T01:22:28;14.18;;;10.27;;
77099;SDS011;66602;48.922;2.414;2024-03-07T01:24:54;11.27;;;10.18;;
77099;SDS011;66602;48.922;2.414;2024-03-07T01:27:20;11.23;;;9.40;;
77099;SDS011;66602;48.922;2.414;2024-03-07T01:29:45;11.48;;;10.40;;
77099;SDS011;66602;48.922;2.414;2024-03-07T01:32:11;10.10;;;9.20;;
77099;SDS011;66602;48.922;2.414;2024-03-07T01:34:36;11.07;;;9.95;;
77099;SDS011;66602;48.922;2.414;2024-03-07T01:37:02;10.52;;;9.60;;
77099;SDS011;66602;48.922;2.414;2024-03-07T01:39:27;11.50;;;10.23;;
77099;SDS011;66602;48.922;2.414;2024-03-07T01:41:53;11.23;;;10.07;;
77099;SDS011;66602;48.922;2.414;2024-03-07T01:44:19;11.68;;;10.65;;
77099;SDS011;66602;48.922;2.414;2024-03-07T01:46:44;10.63;;;9.80;;
77099;SDS011;66602;48.922;2.414;2024-03-07T01:49:12;11.80;;;10.50;;
77099;SDS011;66602;48.922;2.414;2024-03-07T01:51:37;11.05;;;10.13;;
77099;SDS011;66602;48.922;2.414;2024-03-07T01:54:05;15.00;;;11.43;;
77099;SDS011;66602;48.922;2.414;2024-03-07T01:56:32;14.57;;;11.57;;
77099;SDS011;66602;48.922;2.414;2024-03-07T01:58:57;13.77;;;11.23;;
77099;SDS011;66602;48.922;2.414;2024-03-07T02:01:28;10.68;;;9.63;;
77099;SDS011;66602;48.922;2.414;2024-03-07T02:03:53;22.65;;;12.02;;
77099;SDS011;66602;48.922;2.414;2024-03-07T02:06:19;11.40;;;10.30;;
77099;SDS011;66602;48.922;2.414;2024-03-07T02:08:45;14.00;;;10.98;;
77099;SDS011;66602;48.922;2.414;2024-03-07T02:11:11;12.30;;;11.10;;
77099;SDS011;66602;48.922;2.414;2024-03-07T02:13:37;12.43;;;10.93;;
77099;SDS011;66602;48.922;2.414;2024-03-07T02:16:02;11.18;;;10.05;;
77099;SDS011;66602;48.922;2.414;2024-03-07T02:18:29;17.15;;;11.20;;
77099;SDS011;66602;48.922;2.414;2024-03-07T02:20:55;11.43;;;10.27;;
77099;SDS011;66602;48.922;2.414;2024-03-07T02:23:21;13.85;;;11.30;;
77099;SDS011;66602;48.922;2.414;2024-03-07T02:25:46;18.25;;;11.73;;
77099;SDS011;66602;48.922;2.414;2024-03-07T02:28:12;14.95;;;11.93;;
77099;SDS011;66602;48.922;2.414;2024-03-07T02:30:40;17.70;;;11.45;;
77099;SDS011;66602;48.922;2.414;2024-03-07T02:33:06;12.18;;;10.77;;
77099;SDS011;66602;48.922;2.414;2024-03-07T02:35:35;11.70;;;10.48;;
77099;SDS011;66602;48.922;2.414;2024-03-07T02:38:04;10.20;;;9.15;;
77099;SDS011;66602;48.922;2.414;2024-03-07T02:40:36;10.45;;;9.35;;
77099;SDS011;66602;48.922;2.414;2024-03-07T02:43:01;9.73;;;8.95;;
77099;SDS011;66602;48.922;2.414;2024-03-07T02:45:29;11.65;;;9.93;;
77099;SDS011;66602;48.922;2.414;2024-03-07T02:47:55;11.07;;;10.07;;
77099;SDS011;66602;48.922;2.414;2024-03-07T02:50:21;10.60;;;9.55;;
77099;SDS011;66602;48.922;2.414;2024-03-07T02:52:47;14.15;;;10.13;;
77099;SDS011;66602;48.922;2.414;2024-03-07T02:55:14;10.68;;;9.68;;
77099;SDS011;66602;48.922;2.414;2024-03-07T02:57:40;11.43;;;10.23;;
77099;SDS011;66602;48.922;2.414;2024-03-07T03:00:06;10.98;;;9.90;;
77099;SDS011;66602;48.922;2.414;2024-03-07T03:02:45;10.52;;;9.60;;
77099;SDS011;66602;48.922;2.414;2024-03-07T03:05:12;10.90;;;9.75;;
77099;SDS011;66602;48.922;2.414;2024-03-07T03:07:39;10.75;;;9.82;;
77099;SDS011;66602;48.922;2.414;2024-03-07T03:10:05;10.13;;;9.23;;
77099;SDS011;66602;48.922;2.414;2024-03-07T03:12:34;13.85;;;11.10;;
77099;SDS011;66602;48.922;2.414;2024-03-07T03:15:04;9.95;;;9.10;;
77099;SDS011;66602;48.922;2.414;2024-03-07T03:17:31;10.13;;;8.75;;
77099;SDS011;66602;48.922;2.414;2024-03-07T03:19:57;10.15;;;9.15;;
77099;SDS011;66602;48.922;2.414;2024-03-07T03:22:22;13.73;;;9.50;;
77099;SDS011;66602;48.922;2.414;2024-03-07T03:24:48;12.55;;;10.73;;
77099;SDS011;66602;48.922;2.414;2024-03-07T03:27:13;11.88;;;9.25;;
77099;SDS011;66602;48.922;2.414;2024-03-07T03:29:39;9.95;;;9.30;;
77099;SDS011;66602;48.922;2.414;2024-03-07T03:32:05;10.13;;;9.00;;
77099;SDS011;66602;48.922;2.414;2024-03-07T03:34:32;8.63;;;7.93;;
77099;SDS011;66602;48.922;2.414;2024-03-07T03:36:58;10.40;;;9.52;;
77099;SDS011;66602;48.922;2.414;2024-03-07T03:39:24;12.73;;;8.45;;
77099;SDS011;66602;48.922;2.414;2024-03-07T03:41:52;9.85;;;8.82;;
77099;SDS011;66602;48.922;2.414;2024-03-07T03:44:17;8.32;;;7.72;;
77099;SDS011;66602;48.922;2.414;2024-03-07T03:46:43;8.57;;;7.75;;
77099;SDS011;66602;48.922;2.414;2024-03-07T03:49:09;9.63;;;8.52;;
77099;SDS011;66602;48.922;2.414;2024-03-07T03:51:35;9.30;;;8.45;;
77099;SDS011;66602;48.922;2.414;2024-03-07T03:54:01;9.95;;;8.75;;
77099;SDS011;66602;48.922;2.414;2024-03-07T03:56:27;9.70;;;8.90;;
77099;SDS011;66602;48.922;2.414;2024-03-07T03:58:57;8.52;;;7.78;;
77099;SDS011;66602;48.922;2.414;2024-03-07T04:01:22;11.70;;;9.15;;
77099;SDS011;66602;48.922;2.414;2024-03-07T04:03:48;10.90;;;8.57;;
77099;SDS011;66602;48.922;2.414;2024-03-07T04:06:14;9.25;;;8.55;;
77099;SDS011;66602;48.922;2.414;2024-03-07T04:08:40;10.02;;;8.23;;
77099;SDS011;66602;48.922;2.414;2024-03-07T04:11:05;7.88;;;7.30;;
77099;SDS011;66602;48.922;2.414;2024-03-07T04:13:34;10.77;;;8.18;;
77099;SDS011;66602;48.922;2.414;2024-03-07T04:16:00;8.63;;;7.90;;
77099;SDS011;66602;48.922;2.414;2024-03-07T04:18:25;17.75;;;9.55;;
77099;SDS011;66602;48.922;2.414;2024-03-07T04:20:51;9.35;;;7.95;;
77099;SDS011;66602;48.922;2.414;2024-03-07T04:23:17;9.18;;;8.18;;
77099;SDS011;66602;48.922;2.414;2024-03-07T04:25:43;9.10;;;8.40;;
77099;SDS011;66602;48.922;2.414;2024-03-07T04:28:09;9.75;;;8.75;;
77099;SDS011;66602;48.922;2.414;2024-03-07T04:30:34;9.18;;;8.38;;
77099;SDS011;66602;48.922;2.414;2024-03-07T04:33:00;14.18;;;8.23;;
77099;SDS011;66602;48.922;2.414;2024-03-07T04:35:25;8.52;;;7.72;;
77099;SDS011;66602;48.922;2.414;2024-03-07T04:37:50;7.72;;;6.97;;
77099;SDS011;66602;48.922;2.414;2024-03-07T04:40:17;8.15;;;7.55;;
77099;SDS011;66602;48.922;2.414;2024-03-07T04:42:47;7.75;;;7.18;;
77099;SDS011;66602;48.922;2.414;2024-03-07T04:45:14;10.07;;;8.23;;
77099;SDS011;66602;48.922;2.414;2024-03-07T04:47:40;8.00;;;7.35;;
77099;SDS011;66602;48.922;2.414;2024-03-07T04:50:07;11.80;;;9.30;;
77099;SDS011;66602;48.922;2.414;2024-03-07T04:52:36;8.73;;;7.90;;
77099;SDS011;66602;48.922;2.414;2024-03-07T04:55:03;8.25;;;7.57;;
77099;SDS011;66602;48.922;2.414;2024-03-07T04:57:30;13.90;;;8.30;;
77099;SDS011;66602;48.922;2.414;2024-03-07T04:59:56;8.13;;;7.50;;
77099;SDS011;66602;48.922;2.414;2024-03-07T05:02:22;8.60;;;7.65;;
77099;SDS011;66602;48.922;2.414;2024-03-07T05:04:48;9.25;;;8.13;;
77099;SDS011;66602;48.922;2.414;2024-03-07T05:07:15;9.02;;;8.23;;
77099;SDS011;66602;48.922;2.414;2024-03-07T05:09:41;9.68;;;8.75;;
77099;SDS011;66602;48.922;2.414;2024-03-07T05:12:06;8.50;;;6.78;;
77099;SDS011;66602;48.922;2.414;2024-03-07T05:14:32;8.25;;;7.55;;
77099;SDS011;66602;48.922;2.414;2024-03-07T05:16:58;10.65;;;8.30;;
77099;SDS011;66602;48.922;2.414;2024-03-07T05:19:30;8.35;;;7.68;;
77099;SDS011;66602;48.922;2.414;2024-03-07T05:21:59;8.15;;;7.60;;
77099;SDS011;66602;48.922;2.414;2024-03-07T05:24:24;7.88;;;7.22;;
77099;SDS011;66602;48.922;2.414;2024-03-07T05:26:50;7.32;;;6.60;;
77099;SDS011;66602;48.922;2.414;2024-03-07T05:29:18;9.00;;;6.22;;
77099;SDS011;66602;48.922;2.414;2024-03-07T05:31:44;10.50;;;6.60;;
77099;SDS011;66602;48.922;2.414;2024-03-07T05:34:15;6.35;;;5.85;;
77099;SDS011;66602;48.922;2.414;2024-03-07T05:36:44;7.22;;;6.63;;
77099;SDS011;66602;48.922;2.414;2024-03-07T05:39:13;6.13;;;5.63;;
77099;SDS011;66602;48.922;2.414;2024-03-07T05:41:40;6.55;;;6.10;;
77099;SDS011;66602;48.922;2.414;2024-03-07T05:44:06;6.18;;;5.68;;
77099;SDS011;66602;48.922;2.414;2024-03-07T05:46:34;6.43;;;5.90;;
77099;SDS011;66602;48.922;2.414;2024-03-07T05:49:09;6.63;;;6.03;;
77099;SDS011;66602;48.922;2.414;2024-03-07T05:51:35;6.15;;;5.63;;
77099;SDS011;66602;48.922;2.414;2024-03-07T05:54:01;5.40;;;5.00;;
77099;SDS011;66602;48.922;2.414;2024-03-07T05:56:31;5.25;;;4.95;;
77099;SDS011;66602;48.922;2.414;2024-03-07T05:59:00;6.45;;;5.95;;
77099;SDS011;66602;48.922;2.414;2024-03-07T06:01:30;6.75;;;6.00;;
77099;SDS011;66602;48.922;2.414;2024-03-07T06:03:59;5.28;;;4.88;;
77099;SDS011;66602;48.922;2.414;2024-03-07T06:06:33;6.68;;;6.05;;
77099;SDS011;66602;48.922;2.414;2024-03-07T06:09:01;7.07;;;5.43;;
77099;SDS011;66602;48.922;2.414;2024-03-07T06:11:34;7.60;;;6.85;;
77099;SDS011;66602;48.922;2.414;2024-03-07T06:14:01;18.42;;;6.15;;
77099;SDS011;66602;48.922;2.414;2024-03-07T06:16:31;9.48;;;5.68;;
77099;SDS011;66602;48.922;2.414;2024-03-07T06:19:00;7.90;;;6.65;;
77099;SDS011;66602;48.922;2.414;2024-03-07T06:21:29;6.63;;;6.03;;
77099;SDS011;66602;48.922;2.414;2024-03-07T06:23:58;7.60;;;6.57;;
77099;SDS011;66602;48.922;2.414;2024-03-07T06:29:10;8.93;;;7.25;;
77099;SDS011;66602;48.922;2.414;2024-03-07T06:31:41;7.63;;;7.03;;
77099;SDS011;66602;48.922;2.414;2024-03-07T06:34:07;8.05;;;6.40;;
77099;SDS011;66602;48.922;2.414;2024-03-07T06:36:33;9.15;;;7.38;;
77099;SDS011;66602;48.922;2.414;2024-03-07T06:38:59;11.02;;;7.18;;
77099;SDS011;66602;48.922;2.414;2024-03-07T06:41:24;8.40;;;7.13;;
77099;SDS011;66602;48.922;2.414;2024-03-07T06:43:50;9.50;;;7.38;;
77099;SDS011;66602;48.922;2.414;2024-03-07T06:46:18;8.07;;;7.40;;
77099;SDS011;66602;48.922;2.414;2024-03-07T06:48:45;10.63;;;8.02;;
77099;SDS011;66602;48.922;2.414;2024-03-07T06:51:10;12.95;;;7.10;;
77099;SDS011;66602;48.922;2.414;2024-03-07T06:53:36;8.95;;;8.23;;
77099;SDS011;66602;48.922;2.414;2024-03-07T06:56:01;9.13;;;7.53;;
77099;SDS011;66602;48.922;2.414;2024-03-07T06:58:27;9.02;;;7.40;;
77099;SDS011;66602;48.922;2.414;2024-03-07T07:00:53;10.25;;;7.32;;
77099;SDS011;66602;48.922;2.414;2024-03-07T07:03:22;9.73;;;6.93;;
77099;SDS011;66602;48.922;2.414;2024-03-07T07:05:49;7.35;;;6.82;;
77099;SDS011;66602;48.922;2.414;2024-03-07T07:08:15;12.27;;;8.23;;
77099;SDS011;66602;48.922;2.414;2024-03-07T07:10:41;13.20;;;8.43;;
77099;SDS011;66602;48.922;2.414;2024-03-07T07:13:08;13.10;;;7.88;;
77099;SDS011;66602;48.922;2.414;2024-03-07T07:15:34;11.48;;;6.57;;
77099;SDS011;66602;48.922;2.414;2024-03-07T07:18:01;8.50;;;6.45;;
77099;SDS011;66602;48.922;2.414;2024-03-07T07:20:29;11.45;;;7.38;;
77099;SDS011;66602;48.922;2.414;2024-03-07T07:22:55;7.22;;;6.63;;
77099;SDS011;66602;48.922;2.414;2024-03-07T07:25:23;14.82;;;6.95;;
77099;SDS011;66602;48.922;2.414;2024-03-07T07:27:50;7.63;;;6.85;;
77099;SDS011;66602;48.922;2.414;2024-03-07T07:30:23;10.48;;;7.82;;
77099;SDS011;66602;48.922;2.414;2024-03-07T07:32:50;13.10;;;8.07;;
77099;SDS011;66602;48.922;2.414;2024-03-07T07:35:17;10.90;;;7.60;;
77099;SDS011;66602;48.922;2.414;2024-03-07T07:37:45;17.70;;;5.75;;
77099;SDS011;66602;48.922;2.414;2024-03-07T07:40:13;5.38;;;4.90;;
77099;SDS011;66602;48.922;2.414;2024-03-07T07:45:54;9.43;;;5.30;;
77099;SDS011;66602;48.922;2.414;2024-03-07T07:48:20;6.32;;;5.70;;
77099;SDS011;66602;48.922;2.414;2024-03-07T07:50:48;6.22;;;5.75;;
77099;SDS011;66602;48.922;2.414;2024-03-07T07:53:16;6.47;;;5.60;;
77099;SDS011;66602;48.922;2.414;2024-03-07T07:55:41;10.40;;;4.72;;
77099;SDS011;66602;48.922;2.414;2024-03-07T07:58:07;9.90;;;4.45;;
77099;SDS011;66602;48.922;2.414;2024-03-07T08:00:32;7.22;;;5.13;;
77099;SDS011;66602;48.922;2.414;2024-03-07T08:03:01;4.95;;;4.53;;
77099;SDS011;66602;48.922;2.414;2024-03-07T08:05:32;6.93;;;4.40;;
77099;SDS011;66602;48.922;2.414;2024-03-07T08:07:59;8.77;;;4.57;;
77099;SDS011;66602;48.922;2.414;2024-03-07T08:10:29;11.35;;;4.40;;
77099;SDS011;66602;48.922;2.414;2024-03-07T08:12:55;7.13;;;4.60;;
77099;SDS011;66602;48.922;2.414;2024-03-07T08:15:21;5.20;;;4.75;;
77099;SDS011;66602;48.922;2.414;2024-03-07T08:17:47;7.82;;;4.85;;
77099;SDS011;66602;48.922;2.414;2024-03-07T08:20:14;5.72;;;5.22;;
77099;SDS011;66602;48.922;2.414;2024-03-07T08:22:41;5.70;;;4.75;;
77099;SDS011;66602;48.922;2.414;2024-03-07T08:25:14;5.70;;;5.03;;
77099;SDS011;66602;48.922;2.414;2024-03-07T08:27:40;7.57;;;4.30;;
77099;SDS011;66602;48.922;2.414;2024-03-07T08:30:08;5.43;;;4.93;;
77099;SDS011;66602;48.922;2.414;2024-03-07T08:32:44;9.20;;;4.47;;
77099;SDS011;66602;48.922;2.414;2024-03-07T08:35:11;5.90;;;4.53;;
77099;SDS011;66602;48.922;2.414;2024-03-07T08:37:41;7.60;;;4.40;;
77099;SDS011;66602;48.922;2.414;2024-03-07T08:40:07;13.93;;;5.30;;
77099;SDS011;66602;48.922;2.414;2024-03-07T08:42:44;18.42;;;6.57;;
77099;SDS011;66602;48.922;2.414;2024-03-07T08:45:11;16.30;;;5.50;;
77099;SDS011;66602;48.922;2.414;2024-03-07T08:47:42;5.82;;;4.45;;
77099;SDS011;66602;48.922;2.414;2024-03-07T08:50:08;4.30;;;4.00;;
77099;SDS011;66602;48.922;2.414;2024-03-07T08:52:35;14.63;;;4.00;;
77099;SDS011;66602;48.922;2.414;2024-03-07T08:55:08;11.07;;;4.30;;
77099;SDS011;66602;48.922;2.414;2024-03-07T08:57:37;11.70;;;3.92;;
77099;SDS011;66602;48.922;2.414;2024-03-07T09:00:06;6.80;;;3.88;;
77099;SDS011;66602;48.922;2.414;2024-03-07T09:02:38;3.30;;;3.00;;
77099;SDS011;66602;48.922;2.414;2024-03-07T09:05:04;5.93;;;3.55;;
77099;SDS011;66602;48.922;2.414;2024-03-07T09:07:31;4.53;;;3.78;;
77099;SDS011;66602;48.922;2.414;2024-03-07T09:09:57;5.07;;;3.75;;
77099;SDS011;66602;48.922;2.414;2024-03-07T09:12:23;5.63;;;3.30;;
77099;SDS011;66602;48.922;2.414;2024-03-07T09:14:52;3.95;;;3.42;;
77099;SDS011;66602;48.922;2.414;2024-03-07T09:17:18;4.20;;;3.35;;
77099;SDS011;66602;48.922;2.414;2024-03-07T09:19:43;5.18;;;3.30;;
77099;SDS011;66602;48.922;2.414;2024-03-07T09:22:10;4.10;;;3.70;;
77099;SDS011;66602;48.922;2.414;2024-03-07T09:24:36;7.13;;;3.70;;
77099;SDS011;66602;48.922;2.414;2024-03-07T09:27:09;5.63;;;3.78;;
77099;SDS011;66602;48.922;2.414;2024-03-07T09:29:34;5.38;;;4.85;;
77099;SDS011;66602;48.922;2.414;2024-03-07T09:32:00;7.38;;;5.53;;
77099;SDS011;66602;48.922;2.414;2024-03-07T09:34:27;9.25;;;5.15;;
77099;SDS011;66602;48.922;2.414;2024-03-07T09:36:55;5.18;;;4.45;;
77099;SDS011;66602;48.922;2.414;2024-03-07T09:39:21;9.52;;;5.22;;
77099;SDS011;66602;48.922;2.414;2024-03-07T09:41:47;7.78;;;4.38;;
77099;SDS011;66602;48.922;2.414;2024-03-07T09:44:15;5.68;;;5.28;;
77099;SDS011;66602;48.922;2.414;2024-03-07T09:46:47;4.90;;;4.40;;
77099;SDS011;66602;48.922;2.414;2024-03-07T09:49:13;5.30;;;4.90;;
77099;SDS011;66602;48.922;2.414;2024-03-07T09:51:39;6.57;;;4.78;;
77099;SDS011;66602;48.922;2.414;2024-03-07T09:54:05;5.60;;;4.80;;
77099;SDS011;66602;48.922;2.414;2024-03-07T09:56:31;7.65;;;5.47;;
77099;SDS011;66602;48.922;2.414;2024-03-07T09:58:58;6.72;;;5.13;;
77099;SDS011;66602;48.922;2.414;2024-03-07T10:01:27;6.03;;;5.43;;
77099;SDS011;66602;48.922;2.414;2024-03-07T10:03:59;6.20;;;5.68;;
77099;SDS011;66602;48.922;2.414;2024-03-07T10:06:39;7.38;;;5.30;;
77099;SDS011;66602;48.922;2.414;2024-03-07T10:09:10;5.90;;;5.60;;
77099;SDS011;66602;48.922;2.414;2024-03-07T10:11:39;5.90;;;5.53;;
77099;SDS011;66602;48.922;2.414;2024-03-07T10:14:09;6.70;;;6.10;;
77099;SDS011;66602;48.922;2.414;2024-03-07T10:16:36;6.97;;;6.47;;
77099;SDS011;66602;48.922;2.414;2024-03-07T10:19:05;8.25;;;7.25;;
77099;SDS011;66602;48.922;2.414;2024-03-07T10:21:31;10.40;;;7.82;;
77099;SDS011;66602;48.922;2.414;2024-03-07T10:24:05;8.60;;;7.90;;
77099;SDS011;66602;48.922;2.414;2024-03-07T10:26:34;8.63;;;7.88;;
77099;SDS011;66602;48.922;2.414;2024-03-07T10:28:59;9.55;;;8.60;;
77099;SDS011;66602;48.922;2.414;2024-03-07T10:31:31;11.75;;;9.18;;
77099;SDS011;66602;48.922;2.414;2024-03-07T10:33:59;14.25;;;10.05;;
77099;SDS011;66602;48.922;2.414;2024-03-07T10:36:27;10.38;;;9.50;;
77099;SDS011;66602;48.922;2.414;2024-03-07T10:38:59;10.82;;;9.80;;
77099;SDS011;66602;48.922;2.414;2024-03-07T10:41:50;10.63;;;8.95;;
77099;SDS011;66602;48.922;2.414;2024-03-07T10:44:25;9.95;;;9.15;;
77099;SDS011;66602;48.922;2.414;2024-03-07T10:46:54;10.77;;;9.77;;
77099;SDS011;66602;48.922;2.414;2024-03-07T10:49:22;9.75;;;8.85;;
77099;SDS011;66602;48.922;2.414;2024-03-07T10:57:20;10.05;;;9.25;;
77099;SDS011;66602;48.922;2.414;2024-03-07T10:59:56;10.95;;;9.82;;
77099;SDS011;66602;48.922;2.414;2024-03-07T11:04:57;11.43;;;10.33;;
77099;SDS011;66602;48.922;2.414;2024-03-07T11:07:24;11.68;;;10.10;;
77099;SDS011;66602;48.922;2.414;2024-03-07T11:09:53;11.20;;;10.15;;
77099;SDS011;66602;48.922;2.414;2024-03-07T11:12:23;11.25;;;10.23;;
77099;SDS011;66602;48.922;2.414;2024-03-07T11:14:52;12.43;;;10.90;;
77099;SDS011;66602;48.922;2.414;2024-03-07T11:17:20;11.27;;;10.13;;
77099;SDS011;66602;48.922;2.414;2024-03-07T11:19:49;13.93;;;10.65;;
77099;SDS011;66602;48.922;2.414;2024-03-07T11:22:35;11.85;;;10.75;;
77099;SDS011;66602;48.922;2.414;2024-03-07T11:25:02;11.57;;;10.55;;
77099;SDS011;66602;48.922;2.414;2024-03-07T11:30:08;11.35;;;10.35;;
77099;SDS011;66602;48.922;2.414;2024-03-07T11:32:35;13.50;;;11.65;;
77099;SDS011;66602;48.922;2.414;2024-03-07T11:35:20;12.55;;;11.43;;
77099;SDS011;66602;48.922;2.414;2024-03-07T11:37:57;15.57;;;11.77;;
77099;SDS011;66602;48.922;2.414;2024-03-07T11:42:59;12.65;;;11.45;;
77099;SDS011;66602;48.922;2.414;2024-03-07T11:45:31;11.82;;;10.82;;
77099;SDS011;66602;48.922;2.414;2024-03-07T11:48:19;14.80;;;11.50;;
77099;SDS011;66602;48.922;2.414;2024-03-07T11:51:17;13.40;;;11.43;;
77099;SDS011;66602;48.922;2.414;2024-03-07T11:54:20;12.60;;;11.30;;
77099;SDS011;66602;48.922;2.414;2024-03-07T11:57:20;12.80;;;11.25;;
77099;SDS011;66602;48.922;2.414;2024-03-07T12:00:03;12.43;;;11.10;;
77099;SDS011;66602;48.922;2.414;2024-03-07T12:02:58;11.75;;;10.55;;
77099;SDS011;66602;48.922;2.414;2024-03-07T12:05:24;12.60;;;11.35;;
77099;SDS011;66602;48.922;2.414;2024-03-07T12:08:01;13.73;;;11.45;;
77099;SDS011;66602;48.922;2.414;2024-03-07T12:10:26;11.77;;;10.68;;
77099;SDS011;66602;48.922;2.414;2024-03-07T12:12:53;14.52;;;11.88;;
77099;SDS011;66602;48.922;2.414;2024-03-07T12:15:21;15.07;;;12.52;;
77099;SDS011;66602;48.922;2.414;2024-03-07T12:17:49;15.73;;;12.73;;
77099;SDS011;66602;48.922;2.414;2024-03-07T12:20:15;12.85;;;11.63;;
77099;SDS011;66602;48.922;2.414;2024-03-07T12:22:56;11.35;;;10.45;;
77099;SDS011;66602;48.922;2.414;2024-03-07T12:25:26;12.48;;;11.30;;
77099;SDS011;66602;48.922;2.414;2024-03-07T12:30:51;14.30;;;13.02;;
77099;SDS011;66602;48.922;2.414;2024-03-07T12:33:41;13.45;;;12.15;;
77099;SDS011;66602;48.922;2.414;2024-03-07T12:36:16;13.93;;;12.73;;
77099;SDS011;66602;48.922;2.414;2024-03-07T12:38:42;14.40;;;13.07;;
77099;SDS011;66602;48.922;2.414;2024-03-07T12:41:22;14.43;;;12.07;;
77099;SDS011;66602;48.922;2.414;2024-03-07T12:43:58;14.02;;;12.73;;
77099;SDS011;66602;48.922;2.414;2024-03-07T12:46:40;12.98;;;11.75;;
77099;SDS011;66602;48.922;2.414;2024-03-07T12:49:08;13.65;;;12.32;;
77099;SDS011;66602;48.922;2.414;2024-03-07T12:51:34;13.25;;;12.20;;
77099;SDS011;66602;48.922;2.414;2024-03-07T12:54:01;12.65;;;11.45;;
77099;SDS011;66602;48.922;2.414;2024-03-07T12:56:29;12.02;;;10.48;;
77099;SDS011;66602;48.922;2.414;2024-03-07T12:59:00;13.52;;;12.20;;
77099;SDS011;66602;48.922;2.414;2024-03-07T13:01:27;13.65;;;12.32;;
77099;SDS011;66602;48.922;2.414;2024-03-07T13:03:53;12.32;;;11.32;;
77099;SDS011;66602;48.922;2.414;2024-03-07T13:06:19;12.20;;;11.40;;
77099;SDS011;66602;48.922;2.414;2024-03-07T13:08:51;14.32;;;11.68;;
77099;SDS011;66602;48.922;2.414;2024-03-07T13:11:16;12.57;;;11.52;;
77099;SDS011;66602;48.922;2.414;2024-03-07T13:13:44;13.40;;;12.07;;
77099;SDS011;66602;48.922;2.414;2024-03-07T13:16:15;11.90;;;11.10;;
77099;SDS011;66602;48.922;2.414;2024-03-07T13:18:42;12.05;;;10.63;;
77099;SDS011;66602;48.922;2.414;2024-03-07T13:21:07;11.40;;;10.60;;
77099;SDS011;66602;48.922;2.414;2024-03-07T13:23:35;12.52;;;11.52;;
77099;SDS011;66602;48.922;2.414;2024-03-07T13:26:04;10.25;;;9.45;;
77099;SDS011;66602;48.922;2.414;2024-03-07T13:28:36;11.70;;;10.30;;
77099;SDS011;66602;48.922;2.414;2024-03-07T13:31:02;11.50;;;10.70;;
77099;SDS011;66602;48.922;2.414;2024-03-07T13:33:28;13.00;;;11.80;;
77099;SDS011;66602;48.922;2.414;2024-03-07T13:35:54;11.73;;;10.75;;
77099;SDS011;66602;48.922;2.414;2024-03-07T13:38:20;11.45;;;10.55;;
77099;SDS011;66602;48.922;2.414;2024-03-07T13:40:45;11.15;;;10.20;;
77099;SDS011;66602;48.922;2.414;2024-03-07T13:43:11;11.13;;;10.32;;
77099;SDS011;66602;48.922;2.414;2024-03-07T13:45:36;11.40;;;10.52;;
77099;SDS011;66602;48.922;2.414;2024-03-07T13:48:06;12.50;;;10.52;;
77099;SDS011;66602;48.922;2.414;2024-03-07T13:50:33;12.15;;;10.95;;
77099;SDS011;66602;48.922;2.414;2024-03-07T13:53:00;12.77;;;11.52;;
77099;SDS011;66602;48.922;2.414;2024-03-07T14:25:28;12.90;;;11.60;;
77099;SDS011;66602;48.922;2.414;2024-03-07T14:30:55;12.43;;;11.27;;
77099;SDS011;66602;48.922;2.414;2024-03-07T14:33:29;10.93;;;10.00;;
77099;SDS011;66602;48.922;2.414;2024-03-07T14:36:47;10.05;;;9.25;;
77099;SDS011;66602;48.922;2.414;2024-03-07T14:39:15;9.68;;;8.88;;
77099;SDS011;66602;48.922;2.414;2024-03-07T14:44:36;9.93;;;9.20;;
77099;SDS011;66602;48.922;2.414;2024-03-07T14:47:06;10.88;;;9.48;;
77099;SDS011;66602;48.922;2.414;2024-03-07T14:49:37;10.80;;;9.77;;
77099;SDS011;66602;48.922;2.414;2024-03-07T14:52:03;9.10;;;8.50;;
77099;SDS011;66602;48.922;2.414;2024-03-07T14:54:36;9.93;;;9.05;;
77099;SDS011;66602;48.922;2.414;2024-03-07T14:57:05;10.10;;;9.05;;
77099;SDS011;66602;48.922;2.414;2024-03-07T14:59:37;10.35;;;9.48;;
77099;SDS011;66602;48.922;2.414;2024-03-07T15:02:05;10.80;;;9.80;;
77099;SDS011;66602;48.922;2.414;2024-03-07T15:04:36;10.48;;;9.43;;
77099;SDS011;66602;48.922;2.414;2024-03-07T15:07:01;10.00;;;9.20;;
77099;SDS011;66602;48.922;2.414;2024-03-07T15:09:28;10.77;;;9.95;;
77099;SDS011;66602;48.922;2.414;2024-03-07T15:11:59;10.68;;;9.77;;
77099;SDS011;66602;48.922;2.414;2024-03-07T15:14:24;11.10;;;10.07;;
77099;SDS011;66602;48.922;2.414;2024-03-07T15:16:51;10.20;;;9.43;;
77099;SDS011;66602;48.922;2.414;2024-03-07T15:19:18;11.43;;;10.38;;
77099;SDS011;66602;48.922;2.414;2024-03-07T15:21:44;11.45;;;10.38;;
77099;SDS011;66602;48.922;2.414;2024-03-07T15:24:10;10.52;;;9.80;;
77099;SDS011;66602;48.922;2.414;2024-03-07T15:26:36;12.18;;;10.57;;
77099;SDS011;66602;48.922;2.414;2024-03-07T15:29:04;11.48;;;10.40;;
77099;SDS011;66602;48.922;2.414;2024-03-07T15:31:32;11.45;;;10.48;;
77099;SDS011;66602;48.922;2.414;2024-03-07T15:33:59;12.38;;;11.13;;
77099;SDS011;66602;48.922;2.414;2024-03-07T15:36:24;11.77;;;10.43;;
77099;SDS011;66602;48.922;2.414;2024-03-07T15:38:51;10.15;;;9.20;;
77099;SDS011;66602;48.922;2.414;2024-03-07T15:41:19;9.52;;;8.73;;